Terminal Aerodrome Forecast
Issued by NWS Paducah, KY

Home | Current Version | Previous Version | Graphics & Text | Print | Product List | Glossary On
Versions: 1 2 3 4 5 6 7 8 9 10 11 12 13 14 15 16 17 18
727
FTUS43 KPAH 301727
TAFEVV
TAF
KEVV 301727Z 3018/3118 21015G24KT P6SM BKN040
     FM302000 20013G21KT P6SM SCT035 BKN060
      TEMPO 3021/3023 5SM -TSRA BR BKN025CB
     FM302300 23009KT P6SM SCT035 BKN070
     FM310400 23006KT P6SM VCSH BKN025
     FM311500 26012G19KT P6SM OVC012=

USA.gov is the U.S. government's official web portal to all federal, state and local government web resources and services.